Terminal Aerodrome Forecast
Issued by NWS Austin/San Antonio, TX

Current Version | Previous Version | Text Only | Print | Product List | Glossary On
Versions: 1 2 3 4 5 6 7 8 9 10 11 12 13 14 15 16 17 18 19 20 21
000
FTUS44 KEWX 012342
TAFAUS
TAF
KAUS 012342Z 0200/0306 17006KT P6SM FEW250
     FM020900 21003KT P6SM SCT035
      TEMPO 0209/0213 5SM BR
     FM021900 17008KT P6SM SCT045 SCT250
     FM030100 19005KT P6SM FEW250=

USA.gov is the U.S. government's official web portal to all federal, state and local government web resources and services.